sensor_id;sensor_type;location;lat;lon;timestamp;temperature;humidity
790;DHT22;378;48.844;9.156;2022-12-10T00:01:04;1.40;99.90
790;DHT22;378;48.844;9.156;2022-12-10T00:03:31;1.40;99.90
790;DHT22;378;48.844;9.156;2022-12-10T00:06:00;1.40;99.90
790;DHT22;378;48.844;9.156;2022-12-10T00:08:28;1.40;99.90
790;DHT22;378;48.844;9.156;2022-12-10T00:10:54;1.40;99.90
790;DHT22;378;48.844;9.156;2022-12-10T00:13:21;1.40;99.90
790;DHT22;378;48.844;9.156;2022-12-10T00:15:48;1.40;99.90
790;DHT22;378;48.844;9.156;2022-12-10T00:18:15;1.40;99.90
790;DHT22;378;48.844;9.156;2022-12-10T00:20:42;1.40;99.90
790;DHT22;378;48.844;9.156;2022-12-10T00:23:10;1.40;99.90
790;DHT22;378;48.844;9.156;2022-12-10T00:25:37;1.40;99.90
790;DHT22;378;48.844;9.156;2022-12-10T00:28:04;1.30;99.90
790;DHT22;378;48.844;9.156;2022-12-10T00:30:31;1.40;99.90
790;DHT22;378;48.844;9.156;2022-12-10T00:32:59;1.40;99.90
790;DHT22;378;48.844;9.156;2022-12-10T00:35:25;1.40;99.90
790;DHT22;378;48.844;9.156;2022-12-10T00:37:52;1.40;99.90
790;DHT22;378;48.844;9.156;2022-12-10T00:40:21;1.40;99.90
790;DHT22;378;48.844;9.156;2022-12-10T00:42:48;1.40;99.90
790;DHT22;378;48.844;9.156;2022-12-10T00:45:15;1.50;99.90
790;DHT22;378;48.844;9.156;2022-12-10T00:47:41;1.50;99.90
790;DHT22;378;48.844;9.156;2022-12-10T00:50:08;1.50;99.90
790;DHT22;378;48.844;9.156;2022-12-10T00:52:35;1.50;99.90
790;DHT22;378;48.844;9.156;2022-12-10T00:55:02;1.50;99.90
790;DHT22;378;48.844;9.156;2022-12-10T00:57:30;1.40;99.90
790;DHT22;378;48.844;9.156;2022-12-10T00:59:57;1.50;99.90
790;DHT22;378;48.844;9.156;2022-12-10T01:02:24;1.50;99.90
790;DHT22;378;48.844;9.156;2022-12-10T01:04:52;1.50;99.90
790;DHT22;378;48.844;9.156;2022-12-10T01:07:19;1.40;99.90
790;DHT22;378;48.844;9.156;2022-12-10T01:09:46;1.40;99.90
790;DHT22;378;48.844;9.156;2022-12-10T01:12:13;1.50;99.90
790;DHT22;378;48.844;9.156;2022-12-10T01:14:41;1.50;99.90
790;DHT22;378;48.844;9.156;2022-12-10T01:17:08;1.50;99.90
790;DHT22;378;48.844;9.156;2022-12-10T01:19:35;1.50;99.90
790;DHT22;378;48.844;9.156;2022-12-10T01:22:04;1.40;99.90
790;DHT22;378;48.844;9.156;2022-12-10T01:24:31;1.40;99.90
790;DHT22;378;48.844;9.156;2022-12-10T01:26:58;1.40;99.90
790;DHT22;378;48.844;9.156;2022-12-10T01:29:25;1.40;99.90
790;DHT22;378;48.844;9.156;2022-12-10T01:31:59;1.40;99.90
790;DHT22;378;48.844;9.156;2022-12-10T01:34:26;1.40;99.90
790;DHT22;378;48.844;9.156;2022-12-10T01:36:54;1.30;99.90
790;DHT22;378;48.844;9.156;2022-12-10T01:39:21;1.30;99.90
790;DHT22;378;48.844;9.156;2022-12-10T01:41:50;1.30;99.90
790;DHT22;378;48.844;9.156;2022-12-10T01:47:23;1.30;99.90
790;DHT22;378;48.844;9.156;2022-12-10T01:49:50;1.30;99.90
790;DHT22;378;48.844;9.156;2022-12-10T01:52:18;1.30;99.90
790;DHT22;378;48.844;9.156;2022-12-10T01:54:46;1.30;99.90
790;DHT22;378;48.844;9.156;2022-12-10T01:57:16;1.30;99.90
790;DHT22;378;48.844;9.156;2022-12-10T01:59:46;1.30;99.90
790;DHT22;378;48.844;9.156;2022-12-10T02:02:20;1.30;99.90
790;DHT22;378;48.844;9.156;2022-12-10T02:04:59;1.30;99.90
790;DHT22;378;48.844;9.156;2022-12-10T02:07:37;1.20;99.90
790;DHT22;378;48.844;9.156;2022-12-10T02:10:11;1.20;99.90
790;DHT22;378;48.844;9.156;2022-12-10T02:12:46;1.20;99.90
790;DHT22;378;48.844;9.156;2022-12-10T02:15:16;1.20;99.90
790;DHT22;378;48.844;9.156;2022-12-10T02:17:45;1.20;99.90
790;DHT22;378;48.844;9.156;2022-12-10T02:20:17;1.20;99.90
790;DHT22;378;48.844;9.156;2022-12-10T02:22:48;1.20;99.90
790;DHT22;378;48.844;9.156;2022-12-10T02:25:19;1.20;99.90
790;DHT22;378;48.844;9.156;2022-12-10T02:27:51;1.10;99.90
790;DHT22;378;48.844;9.156;2022-12-10T02:30:21;1.20;99.90
790;DHT22;378;48.844;9.156;2022-12-10T02:32:49;1.10;99.90
790;DHT22;378;48.844;9.156;2022-12-10T02:35:20;1.10;99.90
790;DHT22;378;48.844;9.156;2022-12-10T02:37:51;1.20;99.90
790;DHT22;378;48.844;9.156;2022-12-10T02:40:32;1.10;99.90
790;DHT22;378;48.844;9.156;2022-12-10T02:43:00;1.20;99.90
790;DHT22;378;48.844;9.156;2022-12-10T02:45:29;1.20;99.90
790;DHT22;378;48.844;9.156;2022-12-10T02:47:59;1.20;99.90
790;DHT22;378;48.844;9.156;2022-12-10T02:50:26;1.20;99.90
790;DHT22;378;48.844;9.156;2022-12-10T02:52:53;1.20;99.90
790;DHT22;378;48.844;9.156;2022-12-10T02:55:20;1.20;99.90
790;DHT22;378;48.844;9.156;2022-12-10T02:57:56;1.20;99.90
790;DHT22;378;48.844;9.156;2022-12-10T03:00:27;1.20;99.90
790;DHT22;378;48.844;9.156;2022-12-10T03:03:16;1.10;99.90
790;DHT22;378;48.844;9.156;2022-12-10T03:05:49;1.10;99.90
790;DHT22;378;48.844;9.156;2022-12-10T03:08:22;1.00;99.90
790;DHT22;378;48.844;9.156;2022-12-10T03:10:55;1.00;99.90
790;DHT22;378;48.844;9.156;2022-12-10T03:13:27;0.90;99.90
790;DHT22;378;48.844;9.156;2022-12-10T03:15:58;0.90;99.90
790;DHT22;378;48.844;9.156;2022-12-10T03:18:26;0.90;99.90
790;DHT22;378;48.844;9.156;2022-12-10T03:20:54;0.90;99.90
790;DHT22;378;48.844;9.156;2022-12-10T03:23:25;0.90;99.90
790;DHT22;378;48.844;9.156;2022-12-10T03:25:53;0.90;99.90
790;DHT22;378;48.844;9.156;2022-12-10T03:28:21;0.90;99.90
790;DHT22;378;48.844;9.156;2022-12-10T03:30:49;0.90;99.90
790;DHT22;378;48.844;9.156;2022-12-10T03:33:18;1.00;99.90
790;DHT22;378;48.844;9.156;2022-12-10T03:35:46;0.90;99.90
790;DHT22;378;48.844;9.156;2022-12-10T03:38:13;1.00;99.90
790;DHT22;378;48.844;9.156;2022-12-10T03:40:41;0.90;99.90
790;DHT22;378;48.844;9.156;2022-12-10T03:43:07;0.90;99.90
790;DHT22;378;48.844;9.156;2022-12-10T03:45:34;0.80;99.90
790;DHT22;378;48.844;9.156;2022-12-10T03:48:01;0.80;99.90
790;DHT22;378;48.844;9.156;2022-12-10T03:50:29;0.80;99.90
790;DHT22;378;48.844;9.156;2022-12-10T03:52:56;0.80;99.90
790;DHT22;378;48.844;9.156;2022-12-10T03:55:23;0.80;99.90
790;DHT22;378;48.844;9.156;2022-12-10T03:57:50;0.80;99.90
790;DHT22;378;48.844;9.156;2022-12-10T04:00:17;0.90;99.90
790;DHT22;378;48.844;9.156;2022-12-10T04:02:44;0.90;99.90
790;DHT22;378;48.844;9.156;2022-12-10T04:05:11;0.90;99.90
790;DHT22;378;48.844;9.156;2022-12-10T04:07:39;0.90;99.90
790;DHT22;378;48.844;9.156;2022-12-10T04:10:06;0.90;99.90
790;DHT22;378;48.844;9.156;2022-12-10T04:12:34;0.90;99.90
790;DHT22;378;48.844;9.156;2022-12-10T04:15:01;1.00;99.90
790;DHT22;378;48.844;9.156;2022-12-10T04:17:45;0.90;99.90
790;DHT22;378;48.844;9.156;2022-12-10T04:20:12;0.90;99.90
790;DHT22;378;48.844;9.156;2022-12-10T04:22:54;0.90;99.90
790;DHT22;378;48.844;9.156;2022-12-10T04:25:38;0.90;99.90
790;DHT22;378;48.844;9.156;2022-12-10T04:28:22;0.90;99.90
790;DHT22;378;48.844;9.156;2022-12-10T04:30:49;0.90;99.90
790;DHT22;378;48.844;9.156;2022-12-10T04:33:16;0.90;99.90
790;DHT22;378;48.844;9.156;2022-12-10T04:35:42;0.90;99.90
790;DHT22;378;48.844;9.156;2022-12-10T04:38:11;0.90;99.90
790;DHT22;378;48.844;9.156;2022-12-10T04:40:37;0.80;99.90
790;DHT22;378;48.844;9.156;2022-12-10T04:43:04;0.80;99.90
790;DHT22;378;48.844;9.156;2022-12-10T04:45:34;0.80;99.90
790;DHT22;378;48.844;9.156;2022-12-10T04:48:01;0.80;99.90
790;DHT22;378;48.844;9.156;2022-12-10T04:50:28;0.80;99.90
790;DHT22;378;48.844;9.156;2022-12-10T04:52:54;0.70;99.90
790;DHT22;378;48.844;9.156;2022-12-10T04:55:23;0.70;99.90
790;DHT22;378;48.844;9.156;2022-12-10T04:57:49;0.70;99.90
790;DHT22;378;48.844;9.156;2022-12-10T05:00:17;0.70;99.90
790;DHT22;378;48.844;9.156;2022-12-10T05:02:43;0.70;99.90
790;DHT22;378;48.844;9.156;2022-12-10T05:05:10;0.70;99.90
790;DHT22;378;48.844;9.156;2022-12-10T05:07:37;0.70;99.90
790;DHT22;378;48.844;9.156;2022-12-10T05:10:05;0.80;99.90
790;DHT22;378;48.844;9.156;2022-12-10T05:12:33;0.70;99.90
790;DHT22;378;48.844;9.156;2022-12-10T05:15:00;0.70;99.90
790;DHT22;378;48.844;9.156;2022-12-10T05:17:27;0.60;99.90
790;DHT22;378;48.844;9.156;2022-12-10T05:19:54;0.60;99.90
790;DHT22;378;48.844;9.156;2022-12-10T05:22:20;0.60;99.90
790;DHT22;378;48.844;9.156;2022-12-10T05:25:05;0.60;99.90
790;DHT22;378;48.844;9.156;2022-12-10T05:27:34;0.50;99.90
790;DHT22;378;48.844;9.156;2022-12-10T05:30:01;0.50;99.90
790;DHT22;378;48.844;9.156;2022-12-10T05:32:27;0.50;99.90
790;DHT22;378;48.844;9.156;2022-12-10T05:34:54;0.60;99.90
790;DHT22;378;48.844;9.156;2022-12-10T05:37:21;0.60;99.90
790;DHT22;378;48.844;9.156;2022-12-10T05:39:48;0.60;99.90
790;DHT22;378;48.844;9.156;2022-12-10T05:42:15;0.60;99.90
790;DHT22;378;48.844;9.156;2022-12-10T05:44:43;0.60;99.90
790;DHT22;378;48.844;9.156;2022-12-10T05:47:10;0.60;99.90
790;DHT22;378;48.844;9.156;2022-12-10T05:49:37;0.60;99.90
790;DHT22;378;48.844;9.156;2022-12-10T05:52:03;0.60;99.90
790;DHT22;378;48.844;9.156;2022-12-10T05:54:30;0.60;99.90
790;DHT22;378;48.844;9.156;2022-12-10T05:56:57;0.60;99.90
790;DHT22;378;48.844;9.156;2022-12-10T05:59:24;0.50;99.90
790;DHT22;378;48.844;9.156;2022-12-10T06:01:52;0.60;99.90
790;DHT22;378;48.844;9.156;2022-12-10T06:04:19;0.60;99.90
790;DHT22;378;48.844;9.156;2022-12-10T06:06:45;0.50;99.90
790;DHT22;378;48.844;9.156;2022-12-10T06:09:13;0.50;99.90
790;DHT22;378;48.844;9.156;2022-12-10T06:11:40;0.50;99.90
790;DHT22;378;48.844;9.156;2022-12-10T06:14:09;0.50;99.90
790;DHT22;378;48.844;9.156;2022-12-10T06:16:36;0.50;99.90
790;DHT22;378;48.844;9.156;2022-12-10T06:19:04;0.40;99.90
790;DHT22;378;48.844;9.156;2022-12-10T06:21:31;0.50;99.90
790;DHT22;378;48.844;9.156;2022-12-10T06:23:58;0.40;99.90
790;DHT22;378;48.844;9.156;2022-12-10T06:26:25;0.50;99.90
790;DHT22;378;48.844;9.156;2022-12-10T06:28:53;0.50;99.90
790;DHT22;378;48.844;9.156;2022-12-10T06:31:20;0.50;99.90
790;DHT22;378;48.844;9.156;2022-12-10T06:33:48;0.50;99.90
790;DHT22;378;48.844;9.156;2022-12-10T06:36:17;0.50;99.90
790;DHT22;378;48.844;9.156;2022-12-10T06:38:45;0.50;99.90
790;DHT22;378;48.844;9.156;2022-12-10T06:41:14;0.40;99.90
790;DHT22;378;48.844;9.156;2022-12-10T06:43:41;0.40;99.90
790;DHT22;378;48.844;9.156;2022-12-10T06:46:10;0.40;99.90
790;DHT22;378;48.844;9.156;2022-12-10T06:48:37;0.40;99.90
790;DHT22;378;48.844;9.156;2022-12-10T06:51:05;0.40;99.90
790;DHT22;378;48.844;9.156;2022-12-10T06:53:35;0.40;99.90
790;DHT22;378;48.844;9.156;2022-12-10T06:56:06;0.50;99.90
790;DHT22;378;48.844;9.156;2022-12-10T06:58:34;0.50;99.90
790;DHT22;378;48.844;9.156;2022-12-10T07:01:05;0.50;99.90
790;DHT22;378;48.844;9.156;2022-12-10T07:03:33;0.50;99.90
790;DHT22;378;48.844;9.156;2022-12-10T07:06:00;0.50;99.90
790;DHT22;378;48.844;9.156;2022-12-10T07:08:28;0.50;99.90
790;DHT22;378;48.844;9.156;2022-12-10T07:10:56;0.50;99.90
790;DHT22;378;48.844;9.156;2022-12-10T07:13:24;0.60;99.90
790;DHT22;378;48.844;9.156;2022-12-10T07:15:53;0.60;99.90
790;DHT22;378;48.844;9.156;2022-12-10T07:18:20;0.60;99.90
790;DHT22;378;48.844;9.156;2022-12-10T07:20:47;0.60;99.90
790;DHT22;378;48.844;9.156;2022-12-10T07:23:14;0.60;99.90
790;DHT22;378;48.844;9.156;2022-12-10T07:25:41;0.60;99.90
790;DHT22;378;48.844;9.156;2022-12-10T07:28:09;0.60;99.90
790;DHT22;378;48.844;9.156;2022-12-10T07:30:36;0.60;99.90
790;DHT22;378;48.844;9.156;2022-12-10T07:33:03;0.60;99.90
790;DHT22;378;48.844;9.156;2022-12-10T07:35:30;0.70;99.90
790;DHT22;378;48.844;9.156;2022-12-10T07:37:57;0.70;99.90
790;DHT22;378;48.844;9.156;2022-12-10T07:40:24;0.70;99.90
790;DHT22;378;48.844;9.156;2022-12-10T07:42:51;0.80;99.90
790;DHT22;378;48.844;9.156;2022-12-10T07:45:19;0.80;99.90
790;DHT22;378;48.844;9.156;2022-12-10T07:47:46;0.80;99.90
790;DHT22;378;48.844;9.156;2022-12-10T07:50:13;0.90;99.90
790;DHT22;378;48.844;9.156;2022-12-10T07:52:45;0.90;99.90
790;DHT22;378;48.844;9.156;2022-12-10T07:55:12;0.90;99.90
790;DHT22;378;48.844;9.156;2022-12-10T07:57:39;0.90;99.90
790;DHT22;378;48.844;9.156;2022-12-10T08:00:10;0.90;99.90
790;DHT22;378;48.844;9.156;2022-12-10T08:02:42;1.00;99.90
790;DHT22;378;48.844;9.156;2022-12-10T08:05:09;1.00;99.90
790;DHT22;378;48.844;9.156;2022-12-10T08:07:36;1.00;99.90
790;DHT22;378;48.844;9.156;2022-12-10T08:10:04;1.10;99.90
790;DHT22;378;48.844;9.156;2022-12-10T08:12:31;1.10;99.90
790;DHT22;378;48.844;9.156;2022-12-10T08:14:58;1.10;99.90
790;DHT22;378;48.844;9.156;2022-12-10T08:17:24;1.20;99.90
790;DHT22;378;48.844;9.156;2022-12-10T08:19:53;1.20;99.90
790;DHT22;378;48.844;9.156;2022-12-10T08:22:20;1.20;99.90
790;DHT22;378;48.844;9.156;2022-12-10T08:24:47;1.30;99.90
790;DHT22;378;48.844;9.156;2022-12-10T08:27:14;1.30;99.90
790;DHT22;378;48.844;9.156;2022-12-10T08:29:40;1.30;99.90
790;DHT22;378;48.844;9.156;2022-12-10T08:32:07;1.40;99.90
790;DHT22;378;48.844;9.156;2022-12-10T08:34:34;1.40;99.90
790;DHT22;378;48.844;9.156;2022-12-10T08:37:03;1.40;99.90
790;DHT22;378;48.844;9.156;2022-12-10T08:39:30;1.40;99.90
790;DHT22;378;48.844;9.156;2022-12-10T08:41:56;1.50;99.90
790;DHT22;378;48.844;9.156;2022-12-10T08:44:23;1.60;99.90
790;DHT22;378;48.844;9.156;2022-12-10T08:46:50;1.60;99.90
790;DHT22;378;48.844;9.156;2022-12-10T08:49:17;1.70;99.90
790;DHT22;378;48.844;9.156;2022-12-10T08:51:44;1.70;99.90
790;DHT22;378;48.844;9.156;2022-12-10T08:54:13;1.70;99.90
790;DHT22;378;48.844;9.156;2022-12-10T08:56:40;1.70;99.90
790;DHT22;378;48.844;9.156;2022-12-10T08:59:07;1.80;99.90
790;DHT22;378;48.844;9.156;2022-12-10T09:01:34;1.80;99.90
790;DHT22;378;48.844;9.156;2022-12-10T09:04:00;1.80;99.90
790;DHT22;378;48.844;9.156;2022-12-10T09:06:28;1.80;99.90
790;DHT22;378;48.844;9.156;2022-12-10T09:08:55;2.00;99.90
790;DHT22;378;48.844;9.156;2022-12-10T09:11:25;2.00;99.90
790;DHT22;378;48.844;9.156;2022-12-10T09:13:53;2.00;99.90
790;DHT22;378;48.844;9.156;2022-12-10T09:16:20;2.00;99.90
790;DHT22;378;48.844;9.156;2022-12-10T09:18:47;1.90;99.90
790;DHT22;378;48.844;9.156;2022-12-10T09:21:15;1.90;99.90
790;DHT22;378;48.844;9.156;2022-12-10T09:23:43;1.90;99.90
790;DHT22;378;48.844;9.156;2022-12-10T09:26:12;1.90;99.90
790;DHT22;378;48.844;9.156;2022-12-10T09:28:41;2.00;99.90
790;DHT22;378;48.844;9.156;2022-12-10T09:31:09;2.00;99.90
790;DHT22;378;48.844;9.156;2022-12-10T09:33:37;2.00;99.90
790;DHT22;378;48.844;9.156;2022-12-10T09:36:04;2.20;99.90
790;DHT22;378;48.844;9.156;2022-12-10T09:38:33;2.30;99.90
790;DHT22;378;48.844;9.156;2022-12-10T09:41:02;2.30;99.90
790;DHT22;378;48.844;9.156;2022-12-10T09:43:41;2.40;99.90
790;DHT22;378;48.844;9.156;2022-12-10T09:46:20;2.40;99.90
790;DHT22;378;48.844;9.156;2022-12-10T09:48:56;2.40;99.90
790;DHT22;378;48.844;9.156;2022-12-10T09:51:28;2.40;99.90
790;DHT22;378;48.844;9.156;2022-12-10T09:53:56;2.30;99.90
790;DHT22;378;48.844;9.156;2022-12-10T09:56:26;2.30;99.90
790;DHT22;378;48.844;9.156;2022-12-10T09:58:56;2.30;99.90
790;DHT22;378;48.844;9.156;2022-12-10T10:01:27;2.30;99.90
790;DHT22;378;48.844;9.156;2022-12-10T10:03:55;2.40;99.90
790;DHT22;378;48.844;9.156;2022-12-10T10:06:23;2.40;99.90
790;DHT22;378;48.844;9.156;2022-12-10T10:08:54;2.50;99.90
790;DHT22;378;48.844;9.156;2022-12-10T10:11:23;2.50;99.90
790;DHT22;378;48.844;9.156;2022-12-10T10:13:55;2.60;99.90
790;DHT22;378;48.844;9.156;2022-12-10T10:16:26;2.60;99.90
790;DHT22;378;48.844;9.156;2022-12-10T10:18:58;2.70;99.90
790;DHT22;378;48.844;9.156;2022-12-10T10:21:27;2.70;99.90
790;DHT22;378;48.844;9.156;2022-12-10T10:23:55;2.60;99.90
790;DHT22;378;48.844;9.156;2022-12-10T10:26:24;2.70;99.90
790;DHT22;378;48.844;9.156;2022-12-10T10:28:55;2.70;99.90
790;DHT22;378;48.844;9.156;2022-12-10T10:31:27;2.70;99.90
790;DHT22;378;48.844;9.156;2022-12-10T10:33:57;2.70;99.90
790;DHT22;378;48.844;9.156;2022-12-10T10:36:26;2.80;99.90
790;DHT22;378;48.844;9.156;2022-12-10T10:38:53;2.90;99.90
790;DHT22;378;48.844;9.156;2022-12-10T10:41:20;2.90;99.90
790;DHT22;378;48.844;9.156;2022-12-10T10:43:59;2.90;99.90
790;DHT22;378;48.844;9.156;2022-12-10T10:46:28;2.80;99.90
790;DHT22;378;48.844;9.156;2022-12-10T10:49:13;2.70;99.90
790;DHT22;378;48.844;9.156;2022-12-10T10:51:42;2.70;99.90
790;DHT22;378;48.844;9.156;2022-12-10T10:54:11;2.70;99.90
790;DHT22;378;48.844;9.156;2022-12-10T10:56:40;2.70;99.90
790;DHT22;378;48.844;9.156;2022-12-10T10:59:28;2.80;99.90
790;DHT22;378;48.844;9.156;2022-12-10T11:02:02;2.80;99.90
790;DHT22;378;48.844;9.156;2022-12-10T11:04:36;2.90;99.90
790;DHT22;378;48.844;9.156;2022-12-10T11:07:05;3.00;99.90
790;DHT22;378;48.844;9.156;2022-12-10T11:09:37;3.10;99.90
790;DHT22;378;48.844;9.156;2022-12-10T11:12:06;3.20;99.90
790;DHT22;378;48.844;9.156;2022-12-10T11:14:39;3.40;99.90
790;DHT22;378;48.844;9.156;2022-12-10T11:17:19;3.50;99.90
790;DHT22;378;48.844;9.156;2022-12-10T11:19:55;3.50;99.90
790;DHT22;378;48.844;9.156;2022-12-10T11:22:23;3.50;99.90
790;DHT22;378;48.844;9.156;2022-12-10T11:24:51;3.40;99.90
790;DHT22;378;48.844;9.156;2022-12-10T11:29:53;3.30;99.90
790;DHT22;378;48.844;9.156;2022-12-10T11:32:41;3.40;99.90
790;DHT22;378;48.844;9.156;2022-12-10T11:35:13;3.50;99.90
790;DHT22;378;48.844;9.156;2022-12-10T11:37:49;3.50;99.90
790;DHT22;378;48.844;9.156;2022-12-10T11:40:29;3.50;99.90
790;DHT22;378;48.844;9.156;2022-12-10T11:43:13;3.40;99.90
790;DHT22;378;48.844;9.156;2022-12-10T11:45:49;3.50;99.90
790;DHT22;378;48.844;9.156;2022-12-10T11:48:33;3.40;99.90
790;DHT22;378;48.844;9.156;2022-12-10T11:51:04;3.50;99.90
790;DHT22;378;48.844;9.156;2022-12-10T11:53:48;3.50;99.90
790;DHT22;378;48.844;9.156;2022-12-10T11:56:22;3.30;99.90
790;DHT22;378;48.844;9.156;2022-12-10T11:59:02;3.40;99.90
790;DHT22;378;48.844;9.156;2022-12-10T12:01:51;3.40;99.90
790;DHT22;378;48.844;9.156;2022-12-10T12:04:28;3.40;99.90
790;DHT22;378;48.844;9.156;2022-12-10T12:07:18;3.50;99.90
790;DHT22;378;48.844;9.156;2022-12-10T12:09:59;3.60;99.90
790;DHT22;378;48.844;9.156;2022-12-10T12:12:34;3.60;99.90
790;DHT22;378;48.844;9.156;2022-12-10T12:15:15;3.80;99.90
790;DHT22;378;48.844;9.156;2022-12-10T12:17:46;3.80;99.90
790;DHT22;378;48.844;9.156;2022-12-10T12:20:20;3.60;99.90
790;DHT22;378;48.844;9.156;2022-12-10T12:22:51;3.50;99.90
790;DHT22;378;48.844;9.156;2022-12-10T12:25:23;3.40;99.90
790;DHT22;378;48.844;9.156;2022-12-10T12:27:56;3.40;99.90
790;DHT22;378;48.844;9.156;2022-12-10T12:30:23;3.50;99.90
790;DHT22;378;48.844;9.156;2022-12-10T12:32:54;3.60;99.90
790;DHT22;378;48.844;9.156;2022-12-10T12:35:32;3.70;99.90
790;DHT22;378;48.844;9.156;2022-12-10T12:38:05;3.70;99.90
790;DHT22;378;48.844;9.156;2022-12-10T12:40:35;3.80;99.90
790;DHT22;378;48.844;9.156;2022-12-10T12:43:08;3.80;99.90
790;DHT22;378;48.844;9.156;2022-12-10T12:45:39;3.80;99.90
790;DHT22;378;48.844;9.156;2022-12-10T12:48:16;3.80;99.90
790;DHT22;378;48.844;9.156;2022-12-10T12:50:48;3.80;99.90
790;DHT22;378;48.844;9.156;2022-12-10T12:53:18;3.70;99.90
790;DHT22;378;48.844;9.156;2022-12-10T12:55:56;3.60;99.90
790;DHT22;378;48.844;9.156;2022-12-10T12:58:31;3.70;99.90
790;DHT22;378;48.844;9.156;2022-12-10T13:01:10;3.70;99.90
790;DHT22;378;48.844;9.156;2022-12-10T13:03:41;3.60;99.90
790;DHT22;378;48.844;9.156;2022-12-10T13:06:21;3.60;99.90
790;DHT22;378;48.844;9.156;2022-12-10T13:08:52;3.60;99.90
790;DHT22;378;48.844;9.156;2022-12-10T13:11:28;3.50;99.90
790;DHT22;378;48.844;9.156;2022-12-10T13:14:13;3.60;99.90
790;DHT22;378;48.844;9.156;2022-12-10T13:16:49;3.50;99.90
790;DHT22;378;48.844;9.156;2022-12-10T13:19:24;3.30;99.90
790;DHT22;378;48.844;9.156;2022-12-10T13:22:05;3.10;99.90
790;DHT22;378;48.844;9.156;2022-12-10T13:24:48;3.00;99.90
790;DHT22;378;48.844;9.156;2022-12-10T13:27:29;2.80;99.90
790;DHT22;378;48.844;9.156;2022-12-10T13:30:00;2.50;99.90
790;DHT22;378;48.844;9.156;2022-12-10T13:32:44;2.40;99.90
790;DHT22;378;48.844;9.156;2022-12-10T13:35:30;2.40;99.90
790;DHT22;378;48.844;9.156;2022-12-10T13:38:04;2.30;99.90
790;DHT22;378;48.844;9.156;2022-12-10T13:40:40;2.30;99.90
790;DHT22;378;48.844;9.156;2022-12-10T13:43:28;2.10;99.90
790;DHT22;378;48.844;9.156;2022-12-10T13:46:24;2.10;99.90
790;DHT22;378;48.844;9.156;2022-12-10T13:48:52;2.10;99.90
790;DHT22;378;48.844;9.156;2022-12-10T13:51:32;2.10;99.90
790;DHT22;378;48.844;9.156;2022-12-10T13:54:16;2.00;99.90
790;DHT22;378;48.844;9.156;2022-12-10T13:56:50;2.10;99.90
790;DHT22;378;48.844;9.156;2022-12-10T13:59:28;2.10;99.90
790;DHT22;378;48.844;9.156;2022-12-10T14:02:24;2.00;99.90
790;DHT22;378;48.844;9.156;2022-12-10T14:05:11;2.00;99.90
790;DHT22;378;48.844;9.156;2022-12-10T14:07:44;2.00;99.90
790;DHT22;378;48.844;9.156;2022-12-10T14:10:16;2.10;99.90
790;DHT22;378;48.844;9.156;2022-12-10T14:12:45;2.10;99.90
790;DHT22;378;48.844;9.156;2022-12-10T14:15:17;2.00;99.90
790;DHT22;378;48.844;9.156;2022-12-10T14:17:49;1.90;99.90
790;DHT22;378;48.844;9.156;2022-12-10T14:20:19;1.80;99.90
790;DHT22;378;48.844;9.156;2022-12-10T14:22:48;1.80;99.90
790;DHT22;378;48.844;9.156;2022-12-10T14:25:19;1.70;99.90
790;DHT22;378;48.844;9.156;2022-12-10T14:27:48;1.70;99.90
790;DHT22;378;48.844;9.156;2022-12-10T14:30:17;1.70;99.90
790;DHT22;378;48.844;9.156;2022-12-10T14:32:44;1.70;99.90
790;DHT22;378;48.844;9.156;2022-12-10T14:35:14;1.70;99.90
790;DHT22;378;48.844;9.156;2022-12-10T14:37:43;1.70;99.90
790;DHT22;378;48.844;9.156;2022-12-10T14:40:19;1.70;99.90
790;DHT22;378;48.844;9.156;2022-12-10T14:42:48;1.70;99.90
790;DHT22;378;48.844;9.156;2022-12-10T14:45:16;1.60;99.90
790;DHT22;378;48.844;9.156;2022-12-10T14:47:43;1.60;99.90
790;DHT22;378;48.844;9.156;2022-12-10T14:50:11;1.60;99.90
790;DHT22;378;48.844;9.156;2022-12-10T14:52:40;1.50;99.90
790;DHT22;378;48.844;9.156;2022-12-10T14:55:13;1.50;99.90
790;DHT22;378;48.844;9.156;2022-12-10T14:57:43;1.50;99.90
790;DHT22;378;48.844;9.156;2022-12-10T15:00:15;1.40;99.90
790;DHT22;378;48.844;9.156;2022-12-10T15:02:45;1.40;99.90
790;DHT22;378;48.844;9.156;2022-12-10T15:05:16;1.40;99.90
790;DHT22;378;48.844;9.156;2022-12-10T15:07:50;1.30;99.90
790;DHT22;378;48.844;9.156;2022-12-10T15:10:24;1.40;99.90
790;DHT22;378;48.844;9.156;2022-12-10T15:12:53;1.40;99.90
790;DHT22;378;48.844;9.156;2022-12-10T15:15:26;1.30;99.90
790;DHT22;378;48.844;9.156;2022-12-10T15:17:58;1.20;99.90
790;DHT22;378;48.844;9.156;2022-12-10T15:20:29;1.20;99.90
790;DHT22;378;48.844;9.156;2022-12-10T15:23:07;1.10;99.90
790;DHT22;378;48.844;9.156;2022-12-10T15:25:41;1.10;99.90
790;DHT22;378;48.844;9.156;2022-12-10T15:28:22;1.10;99.90
790;DHT22;378;48.844;9.156;2022-12-10T15:30:50;1.10;99.90
790;DHT22;378;48.844;9.156;2022-12-10T15:33:28;1.00;99.90
790;DHT22;378;48.844;9.156;2022-12-10T15:35:57;1.10;99.90
790;DHT22;378;48.844;9.156;2022-12-10T15:38:25;1.10;99.90
790;DHT22;378;48.844;9.156;2022-12-10T15:40:57;1.00;99.90
790;DHT22;378;48.844;9.156;2022-12-10T15:43:28;1.00;99.90
790;DHT22;378;48.844;9.156;2022-12-10T15:45:56;0.90;99.90
790;DHT22;378;48.844;9.156;2022-12-10T15:48:25;0.80;99.90
790;DHT22;378;48.844;9.156;2022-12-10T15:50:53;0.80;99.90
790;DHT22;378;48.844;9.156;2022-12-10T15:53:25;0.70;99.90
790;DHT22;378;48.844;9.156;2022-12-10T15:55:52;0.70;99.90
790;DHT22;378;48.844;9.156;2022-12-10T15:58:19;0.60;99.90
790;DHT22;378;48.844;9.156;2022-12-10T16:00:47;0.50;99.90
790;DHT22;378;48.844;9.156;2022-12-10T16:03:15;0.50;99.90
790;DHT22;378;48.844;9.156;2022-12-10T16:05:43;0.50;99.90
790;DHT22;378;48.844;9.156;2022-12-10T16:08:18;0.50;99.90
790;DHT22;378;48.844;9.156;2022-12-10T16:10:47;0.40;99.90
790;DHT22;378;48.844;9.156;2022-12-10T16:13:18;0.40;99.90
790;DHT22;378;48.844;9.156;2022-12-10T16:15:49;0.40;99.90
790;DHT22;378;48.844;9.156;2022-12-10T16:18:17;0.40;99.90
790;DHT22;378;48.844;9.156;2022-12-10T16:20:44;0.40;99.90
790;DHT22;378;48.844;9.156;2022-12-10T16:23:12;0.30;99.90
790;DHT22;378;48.844;9.156;2022-12-10T16:25:40;0.30;99.90
790;DHT22;378;48.844;9.156;2022-12-10T16:28:11;0.30;99.90
790;DHT22;378;48.844;9.156;2022-12-10T16:30:42;0.30;99.90
790;DHT22;378;48.844;9.156;2022-12-10T16:33:12;0.20;99.90
790;DHT22;378;48.844;9.156;2022-12-10T16:35:39;0.20;99.90
790;DHT22;378;48.844;9.156;2022-12-10T16:38:06;0.20;99.90
790;DHT22;378;48.844;9.156;2022-12-10T16:40:33;0.20;99.90
790;DHT22;378;48.844;9.156;2022-12-10T16:42:59;0.20;99.90
790;DHT22;378;48.844;9.156;2022-12-10T16:45:29;0.30;99.90
790;DHT22;378;48.844;9.156;2022-12-10T16:47:57;0.30;99.90
790;DHT22;378;48.844;9.156;2022-12-10T16:50:28;0.30;99.90
790;DHT22;378;48.844;9.156;2022-12-10T16:52:56;0.30;99.90
790;DHT22;378;48.844;9.156;2022-12-10T16:55:25;0.30;99.90
790;DHT22;378;48.844;9.156;2022-12-10T16:57:52;0.30;99.90
790;DHT22;378;48.844;9.156;2022-12-10T17:00:21;0.30;99.90
790;DHT22;378;48.844;9.156;2022-12-10T17:02:49;0.30;99.90
790;DHT22;378;48.844;9.156;2022-12-10T17:05:24;0.30;99.90
790;DHT22;378;48.844;9.156;2022-12-10T17:07:54;0.30;99.90
790;DHT22;378;48.844;9.156;2022-12-10T17:10:21;0.30;99.90
790;DHT22;378;48.844;9.156;2022-12-10T17:13:09;0.30;99.90
790;DHT22;378;48.844;9.156;2022-12-10T17:15:36;0.30;99.90
790;DHT22;378;48.844;9.156;2022-12-10T17:18:04;0.30;99.90